Opwijk, Belgium
Current Conditions -  °F | °C
As of 4:50 AM on Wednesday 26 Nov 2014 (Local Time) from EBBR Reporting Station
Clear Clear  
Wind Chill: 36°   Ceiling: Unl
Heat Index: 39°   Visibility: 6mi
Dew Point: 37°   Wind: 5mph
Humidity: 93%   Direction: 90°E
Pressure: 29.97"   Gusts: NA
Location:  50.97°N, 4.18°E
Report Text: EBBR 260350Z 09004KT CAVOK 04/03 Q1015 NOSIG
Loading
Personal Weather Stations






























Interactive Weather Map New forecast layout! Learn more

10-Day Weather Forecast

Advertisements
Track Severe Weather on mobile